Time;durP1;ratioP1;P1;durP2;ratioP2;P2;SDS_P1;SDS_P2;PMS_P1;PMS_P2;Temp;Humidity;BMP_temperature;BMP_pressure;BME280_temperature;BME280_humidity;BME280_pressure;Samples;Min_cycle;Max_cycle;Signal;HPM_P1;HPM_P2
2021/05/17 00:00:57;;;;;;;5.70;4.80;;;;;;;;;;5050281;28;20408;-53
2021/05/17 00:03:25;;;;;;;5.07;4.67;;;;;;;;;;5050115;28;20405;-53
2021/05/17 00:05:51;;;;;;;7.57;5.07;;;;;;;;;;5050220;28;20435;-55
2021/05/17 00:08:17;;;;;;;4.97;4.57;;;;;;;;;;5050149;28;20492;-53
2021/05/17 00:10:44;;;;;;;5.33;4.90;;;;;;;;;;5050111;28;20488;-53
2021/05/17 00:13:10;;;;;;;4.40;4.00;;;;;;;;;;5052134;28;20402;-54
2021/05/17 00:15:38;;;;;;;5.70;4.80;;;;;;;;;;5054022;28;20397;-53
2021/05/17 00:18:04;;;;;;;4.80;4.40;;;;;;;;;;5054042;28;20421;-53
2021/05/17 00:20:31;;;;;;;7.50;3.97;;;;;;;;;;5053905;28;20405;-52
2021/05/17 00:22:57;;;;;;;4.37;3.97;;;;;;;;;;5053689;28;20405;-53
2021/05/17 00:25:23;;;;;;;4.43;4.07;;;;;;;;;;5053721;28;20448;-53
2021/05/17 00:27:54;;;;;;;4.50;4.20;;;;;;;;;;5053766;28;20457;-53
2021/05/17 00:30:21;;;;;;;4.33;3.97;;;;;;;;;;5069249;28;20413;-56
2021/05/17 00:32:47;;;;;;;5.53;4.70;;;;;;;;;;5053492;28;20761;-53
2021/05/17 00:35:14;;;;;;;5.00;4.23;;;;;;;;;;5053769;28;20889;-53
2021/05/17 00:37:40;;;;;;;7.90;5.17;;;;;;;;;;5053411;28;20790;-55
2021/05/17 00:40:06;;;;;;;5.20;4.70;;;;;;;;;;5053726;28;20409;-55
2021/05/17 00:42:34;;;;;;;5.03;4.53;;;;;;;;;;5053279;28;20901;-55
2021/05/17 00:45:02;;;;;;;5.27;4.53;;;;;;;;;;5053728;28;20413;-55
2021/05/17 00:47:31;;;;;;;5.67;4.40;;;;;;;;;;5053399;28;20493;-57
2021/05/17 00:49:58;;;;;;;4.90;4.30;;;;;;;;;;5053820;28;20763;-53
2021/05/17 00:52:26;;;;;;;4.27;3.93;;;;;;;;;;5053190;28;20397;-54
2021/05/17 00:54:52;;;;;;;5.67;4.10;;;;;;;;;;5053439;28;20397;-53
2021/05/17 00:57:18;;;;;;;4.93;3.90;;;;;;;;;;5053185;28;20435;-53
2021/05/17 00:59:45;;;;;;;4.90;4.33;;;;;;;;;;5053356;28;20412;-53
2021/05/17 01:02:10;;;;;;;4.47;4.07;;;;;;;;;;5052356;28;20982;-54
2021/05/17 01:04:36;;;;;;;4.70;4.30;;;;;;;;;;5052447;28;20409;-53
2021/05/17 01:07:03;;;;;;;5.00;3.63;;;;;;;;;;5052573;28;21162;-53
2021/05/17 01:09:32;;;;;;;4.30;4.00;;;;;;;;;;5053076;28;20806;-53
2021/05/17 01:11:58;;;;;;;3.40;3.00;;;;;;;;;;5052846;28;20393;-53
2021/05/17 01:14:25;;;;;;;5.60;3.70;;;;;;;;;;5052766;28;20873;-53
2021/05/17 01:16:53;;;;;;;3.37;3.17;;;;;;;;;;5052903;28;20495;-53
2021/05/17 01:19:25;;;;;;;3.80;3.53;;;;;;;;;;5052696;28;20780;-53
2021/05/17 01:21:57;;;;;;;4.47;3.00;;;;;;;;;;5052692;28;20404;-53
2021/05/17 01:24:23;;;;;;;10.93;3.77;;;;;;;;;;5052436;28;20408;-53
2021/05/17 01:26:49;;;;;;;4.70;4.00;;;;;;;;;;5052637;28;20773;-53
2021/05/17 01:29:15;;;;;;;4.20;3.53;;;;;;;;;;5052581;28;20412;-53
2021/05/17 01:31:41;;;;;;;3.80;3.50;;;;;;;;;;5052476;28;20401;-53
2021/05/17 01:34:09;;;;;;;3.43;3.13;;;;;;;;;;5052375;28;20408;-53
2021/05/17 01:36:37;;;;;;;5.63;3.23;;;;;;;;;;5052543;28;20413;-55
2021/05/17 01:39:04;;;;;;;3.30;2.97;;;;;;;;;;5052435;28;20457;-53
2021/05/17 01:41:30;;;;;;;3.40;3.10;;;;;;;;;;5052352;28;20799;-54
2021/05/17 01:43:58;;;;;;;3.60;3.00;;;;;;;;;;5052291;28;20455;-55
2021/05/17 01:46:27;;;;;;;3.47;3.17;;;;;;;;;;5052165;28;20427;-54
2021/05/17 01:48:55;;;;;;;5.37;3.30;;;;;;;;;;5052267;28;20453;-53
2021/05/17 01:51:21;;;;;;;4.00;3.50;;;;;;;;;;5052037;28;20409;-55
2021/05/17 01:53:48;;;;;;;3.00;2.80;;;;;;;;;;5052222;28;20402;-55
2021/05/17 01:56:15;;;;;;;3.53;3.10;;;;;;;;;;5052095;28;20404;-53
2021/05/17 02:01:44;;;;;;;3.70;3.40;;;;;;;;;;5051011;28;20395;-55
2021/05/17 02:04:10;;;;;;;3.60;3.30;;;;;;;;;;5052026;28;20456;-55
2021/05/17 02:06:36;;;;;;;3.60;3.20;;;;;;;;;;5051821;28;20863;-55
2021/05/17 02:09:02;;;;;;;14.57;3.27;;;;;;;;;;5052053;28;20914;-56
2021/05/17 02:11:28;;;;;;;3.83;2.83;;;;;;;;;;5051650;28;20394;-57
2021/05/17 02:13:54;;;;;;;3.87;2.63;;;;;;;;;;5051961;28;20806;-55
2021/05/17 02:16:21;;;;;;;3.00;2.80;;;;;;;;;;5051704;28;20559;-56
2021/05/17 02:18:49;;;;;;;3.43;3.13;;;;;;;;;;5051943;28;20496;-55
2021/05/17 02:21:20;;;;;;;4.43;3.23;;;;;;;;;;5051617;28;20401;-53
2021/05/17 02:23:46;;;;;;;3.07;2.73;;;;;;;;;;5051832;28;20455;-53
2021/05/17 02:26:12;;;;;;;3.67;3.37;;;;;;;;;;5051760;28;20401;-53
2021/05/17 02:28:39;;;;;;;3.33;3.13;;;;;;;;;;5051703;28;20459;-53
2021/05/17 02:31:06;;;;;;;7.33;3.13;;;;;;;;;;5051555;28;20424;-54
2021/05/17 02:33:32;;;;;;;3.23;2.90;;;;;;;;;;5051515;28;20848;-54
2021/05/17 02:35:58;;;;;;;3.33;3.03;;;;;;;;;;5051240;28;20402;-53
2021/05/17 02:38:24;;;;;;;3.60;3.30;;;;;;;;;;5051641;28;20425;-53
2021/05/17 02:40:51;;;;;;;4.43;3.03;;;;;;;;;;5051646;28;20484;-54
2021/05/17 02:43:20;;;;;;;5.53;3.13;;;;;;;;;;5051053;28;20466;-53
2021/05/17 02:45:46;;;;;;;6.73;3.13;;;;;;;;;;5051279;28;20401;-54
2021/05/17 02:48:12;;;;;;;7.53;4.00;;;;;;;;;;5050886;28;20809;-54
2021/05/17 02:50:40;;;;;;;4.20;3.90;;;;;;;;;;5051236;28;20400;-53
2021/05/17 02:53:24;;;;;;;5.50;3.63;;;;;;;;;;5050833;28;20430;-54
2021/05/17 02:55:50;;;;;;;3.87;3.53;;;;;;;;;;5066493;28;20416;-54
2021/05/17 02:58:18;;;;;;;4.60;3.20;;;;;;;;;;5050768;28;20702;-54
2021/05/17 03:00:48;;;;;;;4.60;3.60;;;;;;;;;;5051060;28;20398;-55
2021/05/17 03:03:15;;;;;;;6.77;3.93;;;;;;;;;;5050619;28;20874;-55
2021/05/17 03:05:42;;;;;;;5.80;4.77;;;;;;;;;;5051032;28;20393;-53
2021/05/17 03:08:12;;;;;;;5.20;3.63;;;;;;;;;;5050648;28;20448;-54
2021/05/17 03:10:39;;;;;;;4.60;3.70;;;;;;;;;;5050835;28;20413;-55
2021/05/17 03:13:09;;;;;;;4.10;3.80;;;;;;;;;;5050508;28;20393;-54
2021/05/17 03:15:37;;;;;;;3.97;3.60;;;;;;;;;;5050937;28;20397;-53
2021/05/17 03:18:03;;;;;;;4.27;3.90;;;;;;;;;;5050588;28;20433;-54
2021/05/17 03:20:29;;;;;;;4.70;4.23;;;;;;;;;;5050870;28;20484;-55
2021/05/17 03:22:56;;;;;;;4.70;3.50;;;;;;;;;;5050288;28;20410;-55
2021/05/17 03:25:26;;;;;;;6.33;4.00;;;;;;;;;;5050772;28;20406;-53
2021/05/17 03:27:52;;;;;;;6.63;3.73;;;;;;;;;;5050426;28;20453;-53
2021/05/17 03:30:18;;;;;;;4.03;3.53;;;;;;;;;;5050706;28;20402;-53
2021/05/17 03:32:44;;;;;;;4.20;3.80;;;;;;;;;;5050337;28;20397;-53
2021/05/17 03:35:11;;;;;;;4.67;4.27;;;;;;;;;;5050490;28;20398;-54
2021/05/17 03:37:37;;;;;;;4.33;3.90;;;;;;;;;;5050581;28;21110;-54
2021/05/17 03:40:04;;;;;;;4.23;3.83;;;;;;;;;;5050468;28;20402;-54
2021/05/17 03:42:29;;;;;;;5.23;4.10;;;;;;;;;;5050338;28;20408;-53
2021/05/17 03:44:55;;;;;;;5.20;3.80;;;;;;;;;;5050439;28;20397;-53
2021/05/17 03:47:21;;;;;;;7.60;4.33;;;;;;;;;;5052868;28;20543;-54
2021/05/17 03:49:47;;;;;;;7.30;4.20;;;;;;;;;;5054540;28;20899;-53
2021/05/17 03:52:13;;;;;;;4.37;3.97;;;;;;;;;;5054326;28;20768;-54
2021/05/17 03:54:39;;;;;;;7.00;4.50;;;;;;;;;;5054458;28;20466;-53
2021/05/17 03:57:05;;;;;;;4.77;3.67;;;;;;;;;;5054369;28;20433;-54
2021/05/17 03:59:33;;;;;;;7.10;4.63;;;;;;;;;;5054573;28;20429;-54
2021/05/17 04:01:59;;;;;;;9.30;4.27;;;;;;;;;;5054212;28;20433;-54
2021/05/17 04:04:26;;;;;;;4.40;4.10;;;;;;;;;;5054141;28;20444;-54
2021/05/17 04:15:20;;;;;;;5.20;4.10;;;;;;;;;;5052444;28;20543;-53
2021/05/17 04:17:46;;;;;;;3.87;3.57;;;;;;;;;;5054020;28;20816;-53
2021/05/17 04:20:12;;;;;;;7.17;3.50;;;;;;;;;;5053951;28;20413;-54
2021/05/17 04:22:38;;;;;;;3.63;3.33;;;;;;;;;;5053766;28;20476;-54
2021/05/17 04:25:04;;;;;;;4.03;3.73;;;;;;;;;;5053847;28;20441;-54
2021/05/17 04:27:30;;;;;;;11.30;3.43;;;;;;;;;;5053968;28;20824;-54
2021/05/17 04:29:56;;;;;;;9.60;3.70;;;;;;;;;;5054079;28;20402;-54
2021/05/17 04:32:22;;;;;;;3.83;3.27;;;;;;;;;;5053898;28;20412;-56
2021/05/17 04:34:48;;;;;;;4.60;3.30;;;;;;;;;;5053812;28;20445;-57
2021/05/17 04:37:14;;;;;;;7.10;3.83;;;;;;;;;;5053909;28;20949;-55
2021/05/17 04:39:40;;;;;;;4.47;4.03;;;;;;;;;;5053724;28;21097;-55
2021/05/17 04:42:06;;;;;;;4.63;3.80;;;;;;;;;;5053560;28;20429;-53
2021/05/17 04:44:32;;;;;;;4.70;4.20;;;;;;;;;;5053564;28;20412;-55
2021/05/17 04:46:58;;;;;;;11.03;4.03;;;;;;;;;;5053140;28;20565;-53
2021/05/17 04:49:24;;;;;;;7.53;3.70;;;;;;;;;;5053610;28;20409;-53
2021/05/17 04:51:50;;;;;;;7.10;3.50;;;;;;;;;;5053202;28;20915;-53
2021/05/17 04:54:16;;;;;;;4.60;3.27;;;;;;;;;;5053440;28;20398;-54
2021/05/17 04:56:42;;;;;;;4.50;4.20;;;;;;;;;;5053183;28;20418;-54
2021/05/17 04:59:08;;;;;;;4.00;3.57;;;;;;;;;;5052734;28;20393;-54
2021/05/17 05:01:34;;;;;;;4.80;3.90;;;;;;;;;;5052955;28;20394;-54
2021/05/17 05:04:00;;;;;;;6.50;3.40;;;;;;;;;;5053273;28;20481;-54
2021/05/17 05:06:26;;;;;;;3.90;3.60;;;;;;;;;;5052985;28;20406;-54
2021/05/17 05:08:51;;;;;;;3.87;3.57;;;;;;;;;;5053057;28;20456;-53
2021/05/17 05:11:17;;;;;;;7.60;3.80;;;;;;;;;;5052809;28;20461;-54
2021/05/17 05:13:43;;;;;;;5.43;3.63;;;;;;;;;;5052940;28;20403;-56
2021/05/17 05:16:09;;;;;;;4.43;4.03;;;;;;;;;;5052843;28;20476;-55
2021/05/17 05:18:35;;;;;;;4.23;3.40;;;;;;;;;;5052905;28;20421;-54
2021/05/17 05:21:01;;;;;;;6.70;3.33;;;;;;;;;;5052952;28;20411;-54
2021/05/17 05:23:27;;;;;;;7.33;3.87;;;;;;;;;;5052533;28;20443;-54
2021/05/17 05:28:25;;;;;;;4.10;3.07;;;;;;;;;;5052798;28;20465;-54
2021/05/17 05:31:07;;;;;;;3.60;3.30;;;;;;;;;;5052756;28;20497;-55
2021/05/17 05:33:33;;;;;;;3.73;3.27;;;;;;;;;;5052803;28;20402;-54
2021/05/17 05:35:59;;;;;;;4.57;3.83;;;;;;;;;;5052667;28;20455;-53
2021/05/17 05:38:25;;;;;;;3.40;3.20;;;;;;;;;;5052443;28;20429;-53
2021/05/17 05:40:51;;;;;;;4.07;2.87;;;;;;;;;;5052612;28;20412;-53
2021/05/17 05:43:18;;;;;;;8.27;3.40;;;;;;;;;;5052110;28;20816;-53
2021/05/17 05:45:48;;;;;;;3.23;3.00;;;;;;;;;;5051892;28;20436;-54
2021/05/17 05:48:14;;;;;;;6.90;3.40;;;;;;;;;;5051595;28;20473;-53
2021/05/17 05:50:40;;;;;;;3.57;3.33;;;;;;;;;;5051608;28;20395;-53
2021/05/17 05:53:07;;;;;;;4.23;3.93;;;;;;;;;;5051627;28;21118;-53
2021/05/17 05:55:33;;;;;;;3.43;2.73;;;;;;;;;;5051635;28;20395;-53
2021/05/17 05:58:00;;;;;;;3.37;3.07;;;;;;;;;;5051433;28;20431;-54
2021/05/17 06:00:30;;;;;;;3.37;3.07;;;;;;;;;;5051444;28;20419;-53
2021/05/17 06:02:59;;;;;;;4.40;3.27;;;;;;;;;;5066678;28;20988;-56
2021/05/17 06:05:26;;;;;;;6.00;3.00;;;;;;;;;;5051356;28;20746;-55
2021/05/17 06:07:52;;;;;;;3.60;3.30;;;;;;;;;;5051153;28;20469;-55
2021/05/17 06:10:18;;;;;;;4.83;3.30;;;;;;;;;;5050406;28;20405;-55
2021/05/17 06:12:48;;;;;;;4.23;2.90;;;;;;;;;;5050903;28;20461;-54
2021/05/17 06:15:15;;;;;;;3.13;2.93;;;;;;;;;;5051823;28;20418;-54
2021/05/17 06:17:42;;;;;;;3.10;2.70;;;;;;;;;;5051813;28;20420;-53
2021/05/17 06:20:08;;;;;;;4.40;2.53;;;;;;;;;;5051614;28;20496;-53
2021/05/17 06:22:36;;;;;;;8.20;2.97;;;;;;;;;;5051541;28;20416;-53
2021/05/17 06:25:04;;;;;;;6.40;3.17;;;;;;;;;;5051579;28;20480;-54
2021/05/17 06:27:30;;;;;;;3.30;3.00;;;;;;;;;;5051557;28;20455;-53
2021/05/17 06:29:56;;;;;;;8.60;3.13;;;;;;;;;;5051506;28;20422;-53
2021/05/17 06:32:23;;;;;;;3.27;3.07;;;;;;;;;;5051471;28;20397;-53
2021/05/17 06:34:50;;;;;;;4.00;3.23;;;;;;;;;;5051435;28;20403;-53
2021/05/17 06:37:16;;;;;;;4.70;3.00;;;;;;;;;;5050244;28;20534;-53
2021/05/17 06:39:42;;;;;;;8.03;3.23;;;;;;;;;;5051292;28;20461;-53
2021/05/17 06:42:08;;;;;;;3.10;2.90;;;;;;;;;;5048823;28;20420;-54
2021/05/17 06:44:34;;;;;;;8.00;3.50;;;;;;;;;;5051312;28;20397;-53
2021/05/17 06:47:00;;;;;;;5.60;3.73;;;;;;;;;;5051102;28;20451;-54
2021/05/17 06:49:27;;;;;;;3.87;3.47;;;;;;;;;;5051246;28;20418;-54
2021/05/17 06:51:54;;;;;;;3.93;3.40;;;;;;;;;;5050856;28;20404;-55
2021/05/17 06:54:24;;;;;;;3.40;2.93;;;;;;;;;;5051029;28;20397;-54
2021/05/17 06:56:55;;;;;;;7.97;3.10;;;;;;;;;;5050965;28;20934;-54
2021/05/17 06:59:23;;;;;;;3.30;3.00;;;;;;;;;;5049787;28;20419;-55
2021/05/17 07:01:49;;;;;;;5.87;4.10;;;;;;;;;;5050652;28;20437;-54
2021/05/17 07:04:16;;;;;;;3.67;2.87;;;;;;;;;;5050998;28;20397;-54
2021/05/17 07:06:53;;;;;;;8.93;3.00;;;;;;;;;;5050755;28;20422;-56
2021/05/17 07:12:09;;;;;;;3.97;2.50;;;;;;;;;;5050571;28;20587;-54
2021/05/17 07:14:35;;;;;;;3.20;2.90;;;;;;;;;;5050785;28;20496;-54
2021/05/17 07:17:01;;;;;;;4.03;2.67;;;;;;;;;;5050591;28;20440;-54
2021/05/17 07:19:27;;;;;;;3.17;2.53;;;;;;;;;;5050729;28;20876;-54
2021/05/17 07:24:38;;;;;;;3.10;2.80;;;;;;;;;;5050622;28;20466;-56
2021/05/17 07:27:04;;;;;;;2.60;2.40;;;;;;;;;;5050285;28;20514;-56
2021/05/17 07:29:33;;;;;;;4.00;3.00;;;;;;;;;;5050604;28;20507;-56
2021/05/17 07:31:59;;;;;;;7.17;2.70;;;;;;;;;;5049467;28;20818;-55
2021/05/17 07:34:25;;;;;;;3.23;2.87;;;;;;;;;;5050348;28;20405;-56
2021/05/17 07:36:51;;;;;;;8.10;3.00;;;;;;;;;;5050551;28;20429;-54
2021/05/17 07:39:17;;;;;;;3.00;2.60;;;;;;;;;;5050299;28;20416;-56
2021/05/17 07:41:44;;;;;;;3.73;2.50;;;;;;;;;;5050340;28;20407;-54
2021/05/17 07:44:11;;;;;;;4.30;2.83;;;;;;;;;;5050353;28;20383;-54
2021/05/17 07:46:37;;;;;;;2.63;2.50;;;;;;;;;;5050286;28;20440;-54
2021/05/17 07:51:30;;;;;;;5.70;2.50;;;;;;;;;;5050340;28;20406;-54
2021/05/17 07:53:56;;;;;;;3.30;3.10;;;;;;;;;;5050106;28;20469;-55
2021/05/17 07:56:22;;;;;;;6.43;3.33;;;;;;;;;;5050283;28;20488;-54
2021/05/17 07:58:49;;;;;;;4.47;3.17;;;;;;;;;;5050356;28;20754;-55
2021/05/17 08:01:15;;;;;;;5.57;3.27;;;;;;;;;;5050074;28;20401;-55
2021/05/17 08:03:41;;;;;;;2.53;2.37;;;;;;;;;;5050245;28;20457;-55
2021/05/17 08:06:07;;;;;;;6.13;2.67;;;;;;;;;;5050119;28;20411;-55
2021/05/17 08:08:34;;;;;;;4.80;2.70;;;;;;;;;;5049972;28;20857;-55
2021/05/17 08:11:00;;;;;;;4.33;3.10;;;;;;;;;;5050132;28;20397;-55
2021/05/17 08:13:27;;;;;;;3.60;3.30;;;;;;;;;;5050102;28;20376;-56
2021/05/17 08:15:53;;;;;;;5.30;3.37;;;;;;;;;;5050136;28;20524;-55
2021/05/17 08:18:19;;;;;;;5.03;3.07;;;;;;;;;;5050176;28;20455;-55
2021/05/17 08:20:45;;;;;;;6.00;4.00;;;;;;;;;;5050002;28;20901;-54
2021/05/17 08:23:14;;;;;;;3.30;3.10;;;;;;;;;;5049842;28;20519;-54
2021/05/17 08:25:40;;;;;;;9.83;3.60;;;;;;;;;;5052447;28;20424;-55
2021/05/17 08:28:06;;;;;;;3.23;2.80;;;;;;;;;;5050513;28;20442;-55
2021/05/17 08:30:40;;;;;;;3.67;3.33;;;;;;;;;;5050144;28;20404;-55
2021/05/17 08:33:06;;;;;;;4.23;3.30;;;;;;;;;;5050216;28;20379;-54
2021/05/17 08:35:33;;;;;;;3.00;2.80;;;;;;;;;;5053796;28;20397;-55
2021/05/17 08:37:58;;;;;;;2.73;2.53;;;;;;;;;;5053825;28;20515;-55
2021/05/17 08:40:26;;;;;;;2.40;2.20;;;;;;;;;;5053682;28;20475;-55
2021/05/17 08:42:54;;;;;;;7.67;3.97;;;;;;;;;;5053137;28;20405;-55
2021/05/17 08:45:20;;;;;;;2.63;2.43;;;;;;;;;;5053579;28;20391;-57
2021/05/17 08:47:46;;;;;;;4.70;3.03;;;;;;;;;;5052385;28;20454;-58
2021/05/17 08:50:12;;;;;;;4.27;2.23;;;;;;;;;;5052455;28;20380;-57
2021/05/17 08:52:38;;;;;;;2.40;2.30;;;;;;;;;;5052979;28;20391;-56
2021/05/17 08:55:06;;;;;;;3.33;1.80;;;;;;;;;;5052883;28;20368;-56
2021/05/17 08:57:32;;;;;;;5.77;2.13;;;;;;;;;;5052370;28;20407;-56
2021/05/17 08:59:58;;;;;;;2.90;2.17;;;;;;;;;;5053078;28;20443;-56
2021/05/17 09:02:27;;;;;;;4.23;2.07;;;;;;;;;;5052962;28;20407;-56
2021/05/17 09:05:12;;;;;;;3.20;2.23;;;;;;;;;;5052891;28;20859;-56
2021/05/17 09:07:42;;;;;;;2.47;1.90;;;;;;;;;;5053003;28;20431;-55
2021/05/17 09:10:14;;;;;;;3.63;2.10;;;;;;;;;;5052952;28;20368;-55
2021/05/17 09:12:56;;;;;;;5.57;2.40;;;;;;;;;;5052822;28;20406;-55
2021/05/17 09:15:30;;;;;;;2.50;2.17;;;;;;;;;;5052886;28;20707;-57
2021/05/17 09:17:56;;;;;;;3.87;2.20;;;;;;;;;;5052899;28;20424;-55
2021/05/17 09:20:25;;;;;;;2.97;2.30;;;;;;;;;;5052854;28;20463;-57
2021/05/17 09:23:04;;;;;;;3.43;2.03;;;;;;;;;;5052359;28;20409;-58
2021/05/17 09:25:30;;;;;;;2.50;2.30;;;;;;;;;;5052677;28;20372;-56
2021/05/17 09:28:12;;;;;;;2.33;2.10;;;;;;;;;;5052496;28;20460;-55
2021/05/17 09:31:05;;;;;;;2.50;1.90;;;;;;;;;;5052654;28;20397;-56
2021/05/17 09:33:48;;;;;;;3.60;2.10;;;;;;;;;;5049695;28;20501;-55
2021/05/17 09:36:30;;;;;;;3.27;2.13;;;;;;;;;;5052535;28;20423;-56
2021/05/17 09:38:57;;;;;;;2.67;2.30;;;;;;;;;;5052392;28;20380;-56
2021/05/17 09:41:23;;;;;;;2.53;2.33;;;;;;;;;;5051605;28;20917;-56
2021/05/17 09:43:49;;;;;;;2.60;2.20;;;;;;;;;;5052172;28;20986;-57
2021/05/17 09:46:15;;;;;;;1.63;1.53;;;;;;;;;;5051917;28;20413;-57
2021/05/17 09:48:47;;;;;;;4.53;2.00;;;;;;;;;;5051348;28;21107;-57
2021/05/17 09:51:16;;;;;;;2.60;1.73;;;;;;;;;;5052213;28;20778;-57
2021/05/17 09:53:43;;;;;;;2.43;1.80;;;;;;;;;;5052058;28;20412;-55
2021/05/17 09:56:09;;;;;;;1.97;1.87;;;;;;;;;;5052261;28;20780;-56
2021/05/17 09:58:37;;;;;;;6.93;2.53;;;;;;;;;;5052093;28;20431;-55
2021/05/17 10:01:04;;;;;;;4.60;2.10;;;;;;;;;;5051840;28;20807;-57
2021/05/17 10:03:33;;;;;;;2.63;1.87;;;;;;;;;;5051809;28;20398;-56
2021/05/17 10:05:59;;;;;;;1.67;1.50;;;;;;;;;;5050528;28;20929;-57
2021/05/17 10:08:25;;;;;;;2.93;1.90;;;;;;;;;;5052003;28;20457;-59
2021/05/17 10:10:51;;;;;;;9.43;2.43;;;;;;;;;;5050557;28;20390;-57
2021/05/17 10:13:18;;;;;;;3.23;2.40;;;;;;;;;;5051736;28;20964;-56
2021/05/17 10:15:47;;;;;;;10.63;2.87;;;;;;;;;;5051691;28;20397;-55
2021/05/17 10:18:13;;;;;;;5.90;2.60;;;;;;;;;;5051879;28;20486;-54
2021/05/17 10:20:39;;;;;;;2.80;1.50;;;;;;;;;;5051707;28;20441;-55
2021/05/17 10:23:05;;;;;;;4.03;2.10;;;;;;;;;;5051451;28;20393;-56
2021/05/17 10:25:34;;;;;;;3.20;1.70;;;;;;;;;;5051782;28;20372;-55
2021/05/17 10:28:10;;;;;;;2.93;1.70;;;;;;;;;;5051786;28;20452;-57
2021/05/17 10:30:37;;;;;;;2.00;1.60;;;;;;;;;;5051643;28;20883;-56
2021/05/17 10:33:04;;;;;;;3.20;1.90;;;;;;;;;;5051304;28;20368;-56
2021/05/17 10:35:43;;;;;;;6.00;1.80;;;;;;;;;;5051478;28;20412;-57
2021/05/17 10:38:16;;;;;;;2.90;1.60;;;;;;;;;;5051193;28;20426;-56
2021/05/17 10:40:45;;;;;;;1.60;1.50;;;;;;;;;;5050043;28;20459;-57
2021/05/17 10:43:32;;;;;;;1.50;1.40;;;;;;;;;;5050944;28;20531;-58
2021/05/17 10:49:14;;;;;;;3.17;1.50;;;;;;;;;;5051078;28;20943;-57
2021/05/17 10:51:40;;;;;;;2.70;1.50;;;;;;;;;;5051008;28;20432;-57
2021/05/17 10:54:20;;;;;;;2.03;1.87;;;;;;;;;;5051003;28;20429;-57
2021/05/17 10:56:54;;;;;;;1.60;1.50;;;;;;;;;;5050627;28;20395;-57
2021/05/17 11:02:11;;;;;;;1.40;1.30;;;;;;;;;;5050841;28;20515;-57
2021/05/17 11:04:38;;;;;;;2.00;1.57;;;;;;;;;;5050669;28;20405;-59
2021/05/17 11:07:09;;;;;;;1.47;1.37;;;;;;;;;;5050765;28;20445;-57
2021/05/17 11:09:47;;;;;;;1.40;1.30;;;;;;;;;;5050734;28;20896;-56
2021/05/17 11:12:26;;;;;;;1.23;1.13;;;;;;;;;;5050621;28;20401;-56
2021/05/17 11:15:01;;;;;;;2.17;1.43;;;;;;;;;;5051069;28;20881;-58
2021/05/17 11:17:27;;;;;;;1.20;1.10;;;;;;;;;;5050856;28;20417;-55
2021/05/17 11:19:53;;;;;;;1.30;1.20;;;;;;;;;;5050690;28;20409;-55
2021/05/17 11:22:19;;;;;;;1.43;1.10;;;;;;;;;;5050468;28;20761;-55
2021/05/17 11:24:47;;;;;;;4.00;1.23;;;;;;;;;;5050688;28;20424;-57
2021/05/17 11:27:13;;;;;;;1.10;1.10;;;;;;;;;;5051978;28;20444;-56
2021/05/17 11:29:39;;;;;;;2.13;0.93;;;;;;;;;;5050607;28;20487;-55
2021/05/17 11:32:09;;;;;;;1.80;1.10;;;;;;;;;;5050507;28;20498;-55
2021/05/17 11:34:35;;;;;;;1.43;1.20;;;;;;;;;;5050463;28;20452;-55
2021/05/17 11:37:11;;;;;;;1.43;1.03;;;;;;;;;;5050358;28;20907;-56
2021/05/17 11:39:39;;;;;;;1.17;1.07;;;;;;;;;;5050547;28;20372;-55
2021/05/17 11:42:06;;;;;;;3.70;1.30;;;;;;;;;;5050175;28;20492;-56
2021/05/17 11:44:35;;;;;;;1.37;0.90;;;;;;;;;;5051023;28;20397;-58
2021/05/17 11:47:08;;;;;;;2.20;1.53;;;;;;;;;;5050110;28;20448;-58
2021/05/17 11:49:36;;;;;;;1.03;1.00;;;;;;;;;;5050589;28;20419;-58
2021/05/17 11:52:04;;;;;;;1.77;1.00;;;;;;;;;;5050112;28;20380;-57
2021/05/17 11:54:53;;;;;;;2.67;1.77;;;;;;;;;;5050499;28;20402;-57
2021/05/17 11:57:26;;;;;;;2.03;1.70;;;;;;;;;;5047279;28;21123;-58
2021/05/17 11:59:52;;;;;;;5.23;1.43;;;;;;;;;;5050499;28;20384;-58
2021/05/17 12:02:19;;;;;;;1.87;1.27;;;;;;;;;;5050181;28;20387;-57
2021/05/17 12:04:46;;;;;;;3.13;1.23;;;;;;;;;;5050699;28;20409;-56
2021/05/17 12:07:16;;;;;;;2.40;1.20;;;;;;;;;;5050493;28;20407;-58
2021/05/17 12:09:49;;;;;;;1.33;1.23;;;;;;;;;;5053675;28;20412;-56
2021/05/17 12:12:15;;;;;;;2.60;1.30;;;;;;;;;;5053980;28;20403;-58
2021/05/17 12:14:46;;;;;;;2.80;1.50;;;;;;;;;;5054440;28;20375;-57
2021/05/17 12:17:14;;;;;;;1.40;1.30;;;;;;;;;;5054201;28;20785;-57
2021/05/17 12:19:41;;;;;;;1.50;1.40;;;;;;;;;;5054084;28;20472;-57
2021/05/17 12:22:09;;;;;;;2.33;1.40;;;;;;;;;;5053876;28;20816;-58
2021/05/17 12:24:35;;;;;;;1.43;1.33;;;;;;;;;;5053831;28;20372;-57
2021/05/17 12:27:03;;;;;;;1.60;1.50;;;;;;;;;;5053771;28;20425;-58
2021/05/17 12:29:30;;;;;;;1.20;1.10;;;;;;;;;;5053768;28;20436;-58
2021/05/17 12:32:09;;;;;;;2.23;1.53;;;;;;;;;;5053752;28;20393;-58
2021/05/17 12:34:35;;;;;;;1.80;1.70;;;;;;;;;;5053627;28;20400;-56
2021/05/17 12:37:01;;;;;;;2.70;1.57;;;;;;;;;;5053705;28;20872;-57
2021/05/17 12:39:27;;;;;;;1.43;1.33;;;;;;;;;;5053895;28;20402;-57
2021/05/17 12:41:53;;;;;;;2.60;1.20;;;;;;;;;;5053426;28;20393;-58
2021/05/17 12:44:29;;;;;;;1.23;1.10;;;;;;;;;;5053516;28;20459;-57
2021/05/17 12:47:01;;;;;;;1.43;1.20;;;;;;;;;;5053415;28;20436;-58
2021/05/17 12:49:46;;;;;;;1.37;1.27;;;;;;;;;;5053270;28;20415;-57
2021/05/17 12:52:12;;;;;;;1.30;1.07;;;;;;;;;;5053442;28;20476;-56
2021/05/17 12:54:38;;;;;;;2.80;1.40;;;;;;;;;;5053282;28;20368;-57
2021/05/17 12:57:05;;;;;;;1.83;1.23;;;;;;;;;;5053288;28;20911;-56
2021/05/17 12:59:31;;;;;;;1.43;1.33;;;;;;;;;;5053024;28;20367;-58
2021/05/17 13:02:09;;;;;;;1.50;1.40;;;;;;;;;;5053072;28;20401;-57
2021/05/17 13:04:35;;;;;;;1.57;1.47;;;;;;;;;;5052996;28;20400;-57
2021/05/17 13:07:09;;;;;;;2.50;1.40;;;;;;;;;;5063402;28;20766;-59
2021/05/17 13:09:35;;;;;;;4.53;1.53;;;;;;;;;;5073289;28;20929;-59
2021/05/17 13:12:02;;;;;;;1.90;1.60;;;;;;;;;;5046361;28;20830;-58
2021/05/17 13:14:29;;;;;;;2.93;1.80;;;;;;;;;;5061789;28;20419;-59
2021/05/17 13:17:03;;;;;;;2.20;2.10;;;;;;;;;;5043955;28;20464;-57
2021/05/17 13:25:35;;;;;;;6.40;2.57;;;;;;;;;;5032935;28;20398;-57
2021/05/17 13:30:11;;;;;;;2.60;2.40;;;;;;;;;;5032750;28;20444;-58
2021/05/17 13:32:38;;;;;;;3.07;2.30;;;;;;;;;;5032367;28;20401;-59
2021/05/17 13:35:06;;;;;;;2.60;2.37;;;;;;;;;;5032792;28;20426;-57
2021/05/17 13:37:31;;;;;;;8.63;2.60;;;;;;;;;;5032730;28;20480;-57
2021/05/17 13:39:57;;;;;;;2.87;2.70;;;;;;;;;;5032366;28;20385;-58
2021/05/17 13:42:24;;;;;;;2.67;2.23;;;;;;;;;;5032286;28;20380;-58
2021/05/17 13:44:50;;;;;;;3.73;2.67;;;;;;;;;;5032501;28;20398;-58
2021/05/17 13:47:16;;;;;;;2.50;2.30;;;;;;;;;;5032366;28;20409;-58
2021/05/17 13:49:42;;;;;;;4.00;2.17;;;;;;;;;;5032340;28;20482;-58
2021/05/17 13:52:08;;;;;;;3.50;2.27;;;;;;;;;;5032097;28;20394;-59
2021/05/17 13:54:34;;;;;;;2.77;2.57;;;;;;;;;;5032307;28;20399;-59
2021/05/17 13:57:04;;;;;;;2.90;2.10;;;;;;;;;;5032383;28;20450;-57
2021/05/17 13:59:30;;;;;;;2.50;2.30;;;;;;;;;;5032333;28;20769;-59
2021/05/17 14:01:56;;;;;;;3.97;2.70;;;;;;;;;;5032197;28;20861;-58
2021/05/17 14:04:23;;;;;;;2.60;2.40;;;;;;;;;;5032102;28;20400;-59
2021/05/17 14:06:49;;;;;;;2.47;2.33;;;;;;;;;;5032160;28;20422;-57
2021/05/17 14:09:18;;;;;;;4.70;2.80;;;;;;;;;;5032447;28;20457;-58
2021/05/17 14:11:44;;;;;;;2.90;2.70;;;;;;;;;;5032160;28;20418;-60
2021/05/17 14:14:10;;;;;;;3.20;2.80;;;;;;;;;;5032333;28;20481;-59
2021/05/17 14:16:36;;;;;;;3.13;2.90;;;;;;;;;;5030650;28;20416;-59
2021/05/17 14:19:02;;;;;;;3.47;3.07;;;;;;;;;;5032003;28;20440;-59
2021/05/17 14:21:28;;;;;;;3.43;3.13;;;;;;;;;;5031510;28;20406;-59
2021/05/17 14:23:54;;;;;;;3.80;3.50;;;;;;;;;;5030705;28;20461;-59
2021/05/17 14:26:20;;;;;;;3.67;3.40;;;;;;;;;;5031706;28;20402;-58
2021/05/17 14:28:47;;;;;;;4.10;3.80;;;;;;;;;;5031689;28;20545;-59
2021/05/17 14:31:15;;;;;;;4.60;4.20;;;;;;;;;;5030769;28;20409;-59
2021/05/17 14:33:41;;;;;;;5.53;4.33;;;;;;;;;;5031478;28;20488;-59
2021/05/17 14:36:07;;;;;;;6.60;4.53;;;;;;;;;;5031469;28;20556;-59
2021/05/17 14:38:33;;;;;;;6.47;4.83;;;;;;;;;;5031322;28;20426;-58
2021/05/17 14:41:00;;;;;;;5.93;4.93;;;;;;;;;;5030247;28;20468;-60
2021/05/17 14:43:26;;;;;;;5.53;5.00;;;;;;;;;;5031207;28;20500;-58
2021/05/17 14:45:52;;;;;;;6.63;5.83;;;;;;;;;;5030156;28;21114;-59
2021/05/17 14:48:21;;;;;;;5.80;5.07;;;;;;;;;;5030928;28;20825;-59
2021/05/17 14:50:47;;;;;;;5.53;5.00;;;;;;;;;;5030014;28;20417;-59
2021/05/17 14:53:13;;;;;;;7.07;5.83;;;;;;;;;;5030962;28;20481;-58
2021/05/17 14:55:40;;;;;;;8.90;5.80;;;;;;;;;;5031088;28;20878;-59
2021/05/17 14:58:06;;;;;;;5.30;4.90;;;;;;;;;;5031194;28;20537;-59
2021/05/17 15:00:33;;;;;;;5.47;4.90;;;;;;;;;;5031011;28;20398;-58
2021/05/17 15:02:59;;;;;;;6.50;5.90;;;;;;;;;;5030786;28;20418;-59
2021/05/17 15:05:25;;;;;;;11.67;7.00;;;;;;;;;;5030984;28;20485;-59
2021/05/17 15:07:56;;;;;;;11.13;6.57;;;;;;;;;;5030988;28;20453;-60
2021/05/17 15:10:22;;;;;;;7.70;7.10;;;;;;;;;;5029636;28;20402;-59
2021/05/17 15:12:49;;;;;;;7.07;6.37;;;;;;;;;;5029468;28;20414;-59
2021/05/17 15:15:16;;;;;;;9.17;8.30;;;;;;;;;;5030831;28;20403;-59
2021/05/17 15:17:42;;;;;;;10.97;7.30;;;;;;;;;;5030760;28;20780;-59
2021/05/17 15:20:08;;;;;;;12.10;8.70;;;;;;;;;;5030807;28;20380;-59
2021/05/17 15:22:36;;;;;;;12.90;6.87;;;;;;;;;;5030606;28;20433;-57